createdAt,value
2023-10-23T15:57:04.567Z,15.10
2023-10-23T15:59:51.304Z,14.90
2023-10-23T16:02:39.313Z,14.90
2023-10-23T16:05:27.851Z,14.90
2023-10-23T16:08:14.781Z,14.80
2023-10-23T16:11:01.792Z,14.80
2023-10-23T16:13:53.973Z,14.70
2023-10-23T16:16:41.190Z,14.60
2023-10-23T16:19:31.783Z,14.50
2023-10-23T16:22:18.653Z,14.60
2023-10-23T16:25:06.835Z,14.50
2023-10-23T16:27:53.687Z,14.60
2023-10-23T16:30:42.484Z,14.50
2023-10-23T16:33:29.045Z,14.50
2023-10-23T16:36:15.335Z,14.40
2023-10-23T16:39:01.876Z,14.50
2023-10-23T16:41:50.507Z,14.40
2023-10-23T16:44:52.287Z,14.40
2023-10-23T16:47:42.867Z,14.40
2023-10-23T16:50:29.713Z,14.30
2023-10-23T16:53:19.005Z,14.30
2023-10-23T16:56:05.661Z,14.30
2023-10-23T16:58:52.216Z,14.30
2023-10-23T17:01:39.548Z,14.30
2023-10-23T17:04:28.409Z,14.20
2023-10-23T17:07:17.960Z,14.20
2023-10-23T17:10:06.981Z,14.20
2023-10-23T17:12:54.512Z,14.30
2023-10-23T17:15:45.134Z,14.20
2023-10-23T17:18:32.000Z,14.20
2023-10-23T17:21:20.124Z,14.10
2023-10-23T17:24:07.998Z,14.10
2023-10-23T17:26:54.447Z,14.00
2023-10-23T17:29:41.059Z,13.90
2023-10-23T17:32:27.756Z,13.90
2023-10-23T17:35:15.483Z,13.90
2023-10-23T17:38:04.936Z,13.90
2023-10-23T17:40:52.055Z,13.80
2023-10-23T17:43:40.416Z,13.70
2023-10-23T17:46:27.024Z,13.60
2023-10-23T17:49:13.469Z,13.60
2023-10-23T17:51:59.921Z,13.50
2023-10-23T17:54:49.508Z,13.50
2023-10-23T17:57:36.571Z,13.60
2023-10-23T18:00:23.545Z,13.60
2023-10-23T18:03:10.680Z,13.60
2023-10-23T18:05:58.807Z,13.50
2023-10-23T18:08:45.081Z,13.40
2023-10-23T18:11:33.630Z,13.30
2023-10-23T18:14:20.305Z,13.30
2023-10-23T18:17:06.855Z,13.20
2023-10-23T18:19:54.744Z,13.20
2023-10-23T18:22:43.607Z,13.20
2023-10-23T18:25:31.601Z,13.20
2023-10-23T18:28:19.683Z,13.20
2023-10-23T18:31:06.441Z,13.20
2023-10-23T18:33:52.905Z,13.10
2023-10-23T18:36:39.356Z,13.10
2023-10-23T18:39:25.979Z,13.00
2023-10-23T18:42:12.289Z,13.00
2023-10-23T18:45:00.925Z,13.00
2023-10-23T18:47:47.818Z,12.90
2023-10-23T18:50:34.687Z,13.00
2023-10-23T18:53:21.266Z,13.00
2023-10-23T18:56:07.875Z,13.00
2023-10-23T18:58:54.443Z,13.00
2023-10-23T19:01:43.702Z,13.00
2023-10-23T19:04:30.453Z,13.00
2023-10-23T19:07:17.177Z,13.10
2023-10-23T19:10:06.413Z,13.10
2023-10-23T19:12:53.225Z,13.10
2023-10-23T19:15:39.535Z,13.00
2023-10-23T19:18:30.953Z,13.10
2023-10-23T19:21:18.150Z,13.10
2023-10-23T19:26:56.961Z,13.10
2023-10-23T19:29:43.384Z,13.10
2023-10-23T19:32:31.691Z,13.00
